sensor_id;sensor_type;location;lat;lon;timestamp;P1;durP1;ratioP1;P2;durP2;ratioP2
57561;SDS011;43397;51.530;5.974;2022-07-29T00:02:06;5.78;;;2.20;;
57561;SDS011;43397;51.530;5.974;2022-07-29T00:04:33;6.28;;;1.83;;
57561;SDS011;43397;51.530;5.974;2022-07-29T00:07:02;5.57;;;1.80;;
57561;SDS011;43397;51.530;5.974;2022-07-29T00:09:30;8.13;;;2.00;;
57561;SDS011;43397;51.530;5.974;2022-07-29T00:11:59;5.60;;;1.80;;
57561;SDS011;43397;51.530;5.974;2022-07-29T00:14:25;6.60;;;2.20;;
57561;SDS011;43397;51.530;5.974;2022-07-29T00:16:52;7.07;;;1.80;;
57561;SDS011;43397;51.530;5.974;2022-07-29T00:19:18;5.53;;;2.20;;
57561;SDS011;43397;51.530;5.974;2022-07-29T00:21:44;6.38;;;2.33;;
57561;SDS011;43397;51.530;5.974;2022-07-29T00:24:09;6.93;;;2.50;;
57561;SDS011;43397;51.530;5.974;2022-07-29T00:26:37;6.20;;;2.42;;
57561;SDS011;43397;51.530;5.974;2022-07-29T00:29:03;6.88;;;2.70;;
57561;SDS011;43397;51.530;5.974;2022-07-29T00:31:29;4.35;;;2.05;;
57561;SDS011;43397;51.530;5.974;2022-07-29T00:33:55;6.03;;;2.30;;
57561;SDS011;43397;51.530;5.974;2022-07-29T00:36:21;5.07;;;2.30;;
57561;SDS011;43397;51.530;5.974;2022-07-29T00:38:47;5.93;;;1.88;;
57561;SDS011;43397;51.530;5.974;2022-07-29T00:41:17;5.03;;;1.95;;
57561;SDS011;43397;51.530;5.974;2022-07-29T00:43:44;7.40;;;1.95;;
57561;SDS011;43397;51.530;5.974;2022-07-29T00:46:10;7.93;;;1.80;;
57561;SDS011;43397;51.530;5.974;2022-07-29T00:48:37;5.65;;;1.95;;
57561;SDS011;43397;51.530;5.974;2022-07-29T00:51:03;5.03;;;1.70;;
57561;SDS011;43397;51.530;5.974;2022-07-29T00:53:30;5.88;;;1.98;;
57561;SDS011;43397;51.530;5.974;2022-07-29T00:55:57;5.25;;;1.80;;
57561;SDS011;43397;51.530;5.974;2022-07-29T00:58:23;5.38;;;2.33;;
57561;SDS011;43397;51.530;5.974;2022-07-29T01:00:51;7.28;;;2.20;;
57561;SDS011;43397;51.530;5.974;2022-07-29T01:03:17;6.32;;;2.03;;
57561;SDS011;43397;51.530;5.974;2022-07-29T01:05:43;5.32;;;2.05;;
57561;SDS011;43397;51.530;5.974;2022-07-29T01:08:10;5.65;;;2.22;;
57561;SDS011;43397;51.530;5.974;2022-07-29T01:10:37;5.80;;;2.03;;
57561;SDS011;43397;51.530;5.974;2022-07-29T01:13:04;6.47;;;2.00;;
57561;SDS011;43397;51.530;5.974;2022-07-29T01:15:30;4.75;;;2.20;;
57561;SDS011;43397;51.530;5.974;2022-07-29T01:18:01;9.55;;;2.22;;
57561;SDS011;43397;51.530;5.974;2022-07-29T01:20:36;4.95;;;2.22;;
57561;SDS011;43397;51.530;5.974;2022-07-29T01:26:25;4.53;;;2.20;;
57561;SDS011;43397;51.530;5.974;2022-07-29T01:29:01;6.38;;;2.10;;
57561;SDS011;43397;51.530;5.974;2022-07-29T01:31:31;6.95;;;2.50;;
57561;SDS011;43397;51.530;5.974;2022-07-29T01:34:01;7.57;;;2.45;;
57561;SDS011;43397;51.530;5.974;2022-07-29T01:36:30;7.40;;;2.88;;
57561;SDS011;43397;51.530;5.974;2022-07-29T01:39:01;6.93;;;3.30;;
57561;SDS011;43397;51.530;5.974;2022-07-29T01:41:31;8.68;;;2.88;;
57561;SDS011;43397;51.530;5.974;2022-07-29T01:44:01;7.13;;;3.15;;
57561;SDS011;43397;51.530;5.974;2022-07-29T01:46:33;7.30;;;3.20;;
57561;SDS011;43397;51.530;5.974;2022-07-29T01:49:05;6.95;;;3.20;;
57561;SDS011;43397;51.530;5.974;2022-07-29T01:51:35;6.22;;;3.08;;
57561;SDS011;43397;51.530;5.974;2022-07-29T01:54:06;8.57;;;2.90;;
57561;SDS011;43397;51.530;5.974;2022-07-29T01:56:38;8.15;;;3.40;;
57561;SDS011;43397;51.530;5.974;2022-07-29T01:59:06;10.73;;;3.92;;
57561;SDS011;43397;51.530;5.974;2022-07-29T02:01:35;7.47;;;3.40;;
57561;SDS011;43397;51.530;5.974;2022-07-29T02:04:03;7.60;;;3.90;;
57561;SDS011;43397;51.530;5.974;2022-07-29T02:06:30;9.48;;;3.65;;
57561;SDS011;43397;51.530;5.974;2022-07-29T02:08:58;8.63;;;4.15;;
57561;SDS011;43397;51.530;5.974;2022-07-29T02:11:25;7.20;;;3.53;;
57561;SDS011;43397;51.530;5.974;2022-07-29T02:13:51;9.48;;;4.93;;
57561;SDS011;43397;51.530;5.974;2022-07-29T02:16:21;9.02;;;5.13;;
57561;SDS011;43397;51.530;5.974;2022-07-29T02:18:50;8.73;;;4.95;;
57561;SDS011;43397;51.530;5.974;2022-07-29T02:23:46;8.60;;;3.67;;
57561;SDS011;43397;51.530;5.974;2022-07-29T02:26:13;6.55;;;3.30;;
57561;SDS011;43397;51.530;5.974;2022-07-29T02:28:40;7.10;;;3.75;;
57561;SDS011;43397;51.530;5.974;2022-07-29T02:31:06;9.48;;;3.83;;
57561;SDS011;43397;51.530;5.974;2022-07-29T02:33:35;5.68;;;3.42;;
57561;SDS011;43397;51.530;5.974;2022-07-29T02:36:02;8.27;;;3.55;;
57561;SDS011;43397;51.530;5.974;2022-07-29T02:38:28;8.85;;;3.53;;
57561;SDS011;43397;51.530;5.974;2022-07-29T02:40:56;7.80;;;3.45;;
57561;SDS011;43397;51.530;5.974;2022-07-29T02:43:24;6.82;;;3.60;;
57561;SDS011;43397;51.530;5.974;2022-07-29T02:45:51;6.60;;;3.85;;
57561;SDS011;43397;51.530;5.974;2022-07-29T02:48:21;9.05;;;4.10;;
57561;SDS011;43397;51.530;5.974;2022-07-29T02:50:58;9.68;;;3.50;;
57561;SDS011;43397;51.530;5.974;2022-07-29T02:53:30;7.95;;;3.15;;
57561;SDS011;43397;51.530;5.974;2022-07-29T02:58:27;7.72;;;3.55;;
57561;SDS011;43397;51.530;5.974;2022-07-29T03:00:59;7.88;;;3.22;;
57561;SDS011;43397;51.530;5.974;2022-07-29T03:03:29;7.03;;;3.63;;
57561;SDS011;43397;51.530;5.974;2022-07-29T03:06:01;8.35;;;3.40;;
57561;SDS011;43397;51.530;5.974;2022-07-29T03:08:29;8.18;;;3.13;;
57561;SDS011;43397;51.530;5.974;2022-07-29T03:10:56;6.75;;;3.10;;
57561;SDS011;43397;51.530;5.974;2022-07-29T03:13:23;6.93;;;3.30;;
57561;SDS011;43397;51.530;5.974;2022-07-29T03:15:50;6.65;;;3.92;;
57561;SDS011;43397;51.530;5.974;2022-07-29T03:18:17;7.45;;;3.90;;
57561;SDS011;43397;51.530;5.974;2022-07-29T03:20:43;8.15;;;4.00;;
57561;SDS011;43397;51.530;5.974;2022-07-29T03:23:10;9.25;;;5.10;;
57561;SDS011;43397;51.530;5.974;2022-07-29T03:25:36;10.48;;;4.45;;
57561;SDS011;43397;51.530;5.974;2022-07-29T03:28:02;7.97;;;4.20;;
57561;SDS011;43397;51.530;5.974;2022-07-29T03:30:28;7.53;;;4.13;;
57561;SDS011;43397;51.530;5.974;2022-07-29T03:32:54;7.15;;;4.25;;
57561;SDS011;43397;51.530;5.974;2022-07-29T03:35:20;8.35;;;4.15;;
57561;SDS011;43397;51.530;5.974;2022-07-29T03:37:46;5.68;;;2.70;;
57561;SDS011;43397;51.530;5.974;2022-07-29T03:40:14;6.50;;;2.90;;
57561;SDS011;43397;51.530;5.974;2022-07-29T03:42:45;7.53;;;4.35;;
57561;SDS011;43397;51.530;5.974;2022-07-29T03:45:12;8.93;;;4.70;;
57561;SDS011;43397;51.530;5.974;2022-07-29T03:47:42;7.00;;;4.32;;
57561;SDS011;43397;51.530;5.974;2022-07-29T03:50:11;6.22;;;4.40;;
57561;SDS011;43397;51.530;5.974;2022-07-29T03:52:39;6.15;;;4.00;;
57561;SDS011;43397;51.530;5.974;2022-07-29T03:55:06;9.75;;;4.57;;
57561;SDS011;43397;51.530;5.974;2022-07-29T03:57:35;7.15;;;3.65;;
57561;SDS011;43397;51.530;5.974;2022-07-29T04:02:29;7.82;;;4.00;;
57561;SDS011;43397;51.530;5.974;2022-07-29T04:04:56;8.38;;;4.32;;
57561;SDS011;43397;51.530;5.974;2022-07-29T04:07:22;7.43;;;4.20;;
57561;SDS011;43397;51.530;5.974;2022-07-29T04:09:48;5.47;;;3.72;;
57561;SDS011;43397;51.530;5.974;2022-07-29T04:12:14;6.82;;;4.25;;
57561;SDS011;43397;51.530;5.974;2022-07-29T04:14:41;7.35;;;3.90;;
57561;SDS011;43397;51.530;5.974;2022-07-29T04:17:07;9.73;;;3.30;;
57561;SDS011;43397;51.530;5.974;2022-07-29T04:19:33;7.43;;;4.32;;
57561;SDS011;43397;51.530;5.974;2022-07-29T04:21:59;7.07;;;4.20;;
57561;SDS011;43397;51.530;5.974;2022-07-29T04:24:25;6.50;;;4.00;;
57561;SDS011;43397;51.530;5.974;2022-07-29T04:26:52;7.28;;;4.70;;
57561;SDS011;43397;51.530;5.974;2022-07-29T04:29:18;7.45;;;4.20;;
57561;SDS011;43397;51.530;5.974;2022-07-29T04:31:45;7.93;;;4.05;;
57561;SDS011;43397;51.530;5.974;2022-07-29T04:34:11;9.50;;;4.72;;
57561;SDS011;43397;51.530;5.974;2022-07-29T04:36:37;7.25;;;4.63;;
57561;SDS011;43397;51.530;5.974;2022-07-29T04:39:03;8.30;;;4.38;;
57561;SDS011;43397;51.530;5.974;2022-07-29T04:41:30;7.38;;;4.35;;
57561;SDS011;43397;51.530;5.974;2022-07-29T04:43:56;7.47;;;4.20;;
57561;SDS011;43397;51.530;5.974;2022-07-29T04:46:22;5.78;;;4.00;;
57561;SDS011;43397;51.530;5.974;2022-07-29T04:48:49;10.23;;;4.18;;
57561;SDS011;43397;51.530;5.974;2022-07-29T04:51:15;7.25;;;4.25;;
57561;SDS011;43397;51.530;5.974;2022-07-29T04:53:42;8.90;;;4.57;;
57561;SDS011;43397;51.530;5.974;2022-07-29T04:56:10;9.20;;;4.85;;
57561;SDS011;43397;51.530;5.974;2022-07-29T04:58:36;7.47;;;4.55;;
57561;SDS011;43397;51.530;5.974;2022-07-29T05:01:02;7.70;;;4.00;;
57561;SDS011;43397;51.530;5.974;2022-07-29T05:03:28;7.05;;;3.88;;
57561;SDS011;43397;51.530;5.974;2022-07-29T05:05:55;9.05;;;4.25;;
57561;SDS011;43397;51.530;5.974;2022-07-29T05:08:21;7.30;;;4.80;;
57561;SDS011;43397;51.530;5.974;2022-07-29T05:10:47;10.13;;;4.53;;
57561;SDS011;43397;51.530;5.974;2022-07-29T05:13:13;8.07;;;4.50;;
57561;SDS011;43397;51.530;5.974;2022-07-29T05:15:39;7.95;;;4.32;;
57561;SDS011;43397;51.530;5.974;2022-07-29T05:18:05;8.23;;;4.60;;
57561;SDS011;43397;51.530;5.974;2022-07-29T05:20:31;6.10;;;4.07;;
57561;SDS011;43397;51.530;5.974;2022-07-29T05:22:58;9.45;;;4.63;;
57561;SDS011;43397;51.530;5.974;2022-07-29T05:25:26;6.72;;;4.47;;
57561;SDS011;43397;51.530;5.974;2022-07-29T05:27:52;8.18;;;4.53;;
57561;SDS011;43397;51.530;5.974;2022-07-29T05:30:18;7.53;;;4.63;;
57561;SDS011;43397;51.530;5.974;2022-07-29T05:32:45;5.75;;;3.80;;
57561;SDS011;43397;51.530;5.974;2022-07-29T05:35:13;8.55;;;4.78;;
57561;SDS011;43397;51.530;5.974;2022-07-29T05:37:40;6.97;;;4.22;;
57561;SDS011;43397;51.530;5.974;2022-07-29T05:40:07;7.50;;;4.45;;
57561;SDS011;43397;51.530;5.974;2022-07-29T05:42:34;7.72;;;4.20;;
57561;SDS011;43397;51.530;5.974;2022-07-29T05:45:00;7.38;;;4.60;;
57561;SDS011;43397;51.530;5.974;2022-07-29T05:47:26;8.65;;;4.32;;
57561;SDS011;43397;51.530;5.974;2022-07-29T05:49:52;10.80;;;5.10;;
57561;SDS011;43397;51.530;5.974;2022-07-29T05:52:18;7.03;;;4.40;;
57561;SDS011;43397;51.530;5.974;2022-07-29T05:54:43;8.32;;;4.97;;
57561;SDS011;43397;51.530;5.974;2022-07-29T05:57:16;7.03;;;4.88;;
57561;SDS011;43397;51.530;5.974;2022-07-29T05:59:42;10.32;;;5.53;;
57561;SDS011;43397;51.530;5.974;2022-07-29T06:02:08;9.00;;;5.32;;
57561;SDS011;43397;51.530;5.974;2022-07-29T06:04:34;8.55;;;5.68;;
57561;SDS011;43397;51.530;5.974;2022-07-29T06:07:00;7.32;;;5.40;;
57561;SDS011;43397;51.530;5.974;2022-07-29T06:09:25;7.47;;;5.15;;
57561;SDS011;43397;51.530;5.974;2022-07-29T06:11:51;9.18;;;5.32;;
57561;SDS011;43397;51.530;5.974;2022-07-29T06:14:19;6.90;;;5.03;;
57561;SDS011;43397;51.530;5.974;2022-07-29T06:16:45;7.18;;;4.93;;
57561;SDS011;43397;51.530;5.974;2022-07-29T06:19:11;8.00;;;5.78;;
57561;SDS011;43397;51.530;5.974;2022-07-29T06:21:39;10.63;;;6.07;;
57561;SDS011;43397;51.530;5.974;2022-07-29T06:24:07;8.68;;;5.95;;
57561;SDS011;43397;51.530;5.974;2022-07-29T06:26:33;10.57;;;6.03;;
57561;SDS011;43397;51.530;5.974;2022-07-29T06:28:59;10.15;;;5.70;;
57561;SDS011;43397;51.530;5.974;2022-07-29T06:31:26;7.75;;;5.75;;
57561;SDS011;43397;51.530;5.974;2022-07-29T06:33:52;11.40;;;5.95;;
57561;SDS011;43397;51.530;5.974;2022-07-29T06:36:18;9.13;;;6.43;;
57561;SDS011;43397;51.530;5.974;2022-07-29T06:38:44;9.05;;;6.43;;
57561;SDS011;43397;51.530;5.974;2022-07-29T06:41:10;11.77;;;6.78;;
57561;SDS011;43397;51.530;5.974;2022-07-29T06:43:36;11.40;;;6.35;;
57561;SDS011;43397;51.530;5.974;2022-07-29T06:46:04;8.73;;;7.35;;
57561;SDS011;43397;51.530;5.974;2022-07-29T06:48:32;10.40;;;7.38;;
57561;SDS011;43397;51.530;5.974;2022-07-29T06:50:59;9.10;;;7.10;;
57561;SDS011;43397;51.530;5.974;2022-07-29T06:53:25;12.23;;;7.68;;
57561;SDS011;43397;51.530;5.974;2022-07-29T06:55:51;13.88;;;8.30;;
57561;SDS011;43397;51.530;5.974;2022-07-29T06:58:17;12.13;;;7.43;;
57561;SDS011;43397;51.530;5.974;2022-07-29T07:00:45;10.02;;;7.30;;
57561;SDS011;43397;51.530;5.974;2022-07-29T07:03:11;9.18;;;7.43;;
57561;SDS011;43397;51.530;5.974;2022-07-29T07:05:38;11.27;;;7.53;;
57561;SDS011;43397;51.530;5.974;2022-07-29T07:08:04;9.05;;;6.32;;
57561;SDS011;43397;51.530;5.974;2022-07-29T07:10:30;11.02;;;7.28;;
57561;SDS011;43397;51.530;5.974;2022-07-29T07:12:56;11.15;;;7.85;;
57561;SDS011;43397;51.530;5.974;2022-07-29T07:15:22;12.13;;;8.10;;
57561;SDS011;43397;51.530;5.974;2022-07-29T07:17:48;10.43;;;8.48;;
57561;SDS011;43397;51.530;5.974;2022-07-29T07:20:14;10.48;;;7.45;;
57561;SDS011;43397;51.530;5.974;2022-07-29T07:22:41;12.45;;;8.10;;
57561;SDS011;43397;51.530;5.974;2022-07-29T07:25:07;11.40;;;7.97;;
57561;SDS011;43397;51.530;5.974;2022-07-29T07:27:33;12.70;;;9.23;;
57561;SDS011;43397;51.530;5.974;2022-07-29T07:29:59;11.18;;;9.18;;
57561;SDS011;43397;51.530;5.974;2022-07-29T07:32:25;12.82;;;9.57;;
57561;SDS011;43397;51.530;5.974;2022-07-29T07:34:51;11.07;;;9.07;;
57561;SDS011;43397;51.530;5.974;2022-07-29T07:37:17;9.77;;;8.30;;
57561;SDS011;43397;51.530;5.974;2022-07-29T07:39:44;12.38;;;8.52;;
57561;SDS011;43397;51.530;5.974;2022-07-29T07:42:10;11.05;;;8.10;;
57561;SDS011;43397;51.530;5.974;2022-07-29T07:44:36;11.90;;;7.72;;
57561;SDS011;43397;51.530;5.974;2022-07-29T07:47:03;10.52;;;7.05;;
57561;SDS011;43397;51.530;5.974;2022-07-29T07:49:29;9.85;;;7.78;;
57561;SDS011;43397;51.530;5.974;2022-07-29T07:51:55;10.43;;;8.32;;
57561;SDS011;43397;51.530;5.974;2022-07-29T07:54:20;9.70;;;7.75;;
57561;SDS011;43397;51.530;5.974;2022-07-29T07:56:48;10.32;;;7.68;;
57561;SDS011;43397;51.530;5.974;2022-07-29T07:59:14;12.10;;;9.00;;
57561;SDS011;43397;51.530;5.974;2022-07-29T08:01:40;9.55;;;7.63;;
57561;SDS011;43397;51.530;5.974;2022-07-29T08:04:05;10.60;;;8.48;;
57561;SDS011;43397;51.530;5.974;2022-07-29T08:06:31;10.27;;;8.00;;
57561;SDS011;43397;51.530;5.974;2022-07-29T08:08:57;10.35;;;8.23;;
57561;SDS011;43397;51.530;5.974;2022-07-29T08:11:24;12.27;;;8.52;;
57561;SDS011;43397;51.530;5.974;2022-07-29T08:13:51;10.68;;;8.35;;
57561;SDS011;43397;51.530;5.974;2022-07-29T08:16:17;13.82;;;8.73;;
57561;SDS011;43397;51.530;5.974;2022-07-29T08:18:43;11.05;;;8.70;;
57561;SDS011;43397;51.530;5.974;2022-07-29T08:21:10;12.23;;;8.35;;
57561;SDS011;43397;51.530;5.974;2022-07-29T08:23:37;11.95;;;8.50;;
57561;SDS011;43397;51.530;5.974;2022-07-29T08:26:03;10.73;;;8.32;;
57561;SDS011;43397;51.530;5.974;2022-07-29T08:28:29;11.10;;;8.00;;
57561;SDS011;43397;51.530;5.974;2022-07-29T08:30:59;10.10;;;8.38;;
57561;SDS011;43397;51.530;5.974;2022-07-29T08:33:24;10.77;;;8.52;;
57561;SDS011;43397;51.530;5.974;2022-07-29T08:35:50;11.48;;;8.57;;
57561;SDS011;43397;51.530;5.974;2022-07-29T08:38:16;10.40;;;7.88;;
57561;SDS011;43397;51.530;5.974;2022-07-29T08:40:42;14.95;;;10.02;;
57561;SDS011;43397;51.530;5.974;2022-07-29T08:43:08;14.18;;;10.52;;
57561;SDS011;43397;51.530;5.974;2022-07-29T08:45:38;10.63;;;9.15;;
57561;SDS011;43397;51.530;5.974;2022-07-29T08:48:09;10.63;;;8.30;;
57561;SDS011;43397;51.530;5.974;2022-07-29T08:50:37;9.32;;;7.72;;
57561;SDS011;43397;51.530;5.974;2022-07-29T08:53:04;10.68;;;9.07;;
57561;SDS011;43397;51.530;5.974;2022-07-29T08:55:32;11.50;;;8.93;;
57561;SDS011;43397;51.530;5.974;2022-07-29T08:57:59;10.02;;;8.82;;
57561;SDS011;43397;51.530;5.974;2022-07-29T09:00:26;11.25;;;9.40;;
57561;SDS011;43397;51.530;5.974;2022-07-29T09:02:55;11.77;;;9.90;;
57561;SDS011;43397;51.530;5.974;2022-07-29T09:05:24;11.60;;;9.63;;
57561;SDS011;43397;51.530;5.974;2022-07-29T09:07:53;13.45;;;9.63;;
57561;SDS011;43397;51.530;5.974;2022-07-29T09:10:20;12.75;;;11.05;;
57561;SDS011;43397;51.530;5.974;2022-07-29T09:12:46;10.95;;;9.00;;
57561;SDS011;43397;51.530;5.974;2022-07-29T09:15:13;16.77;;;10.73;;
57561;SDS011;43397;51.530;5.974;2022-07-29T09:17:39;14.75;;;10.25;;
57561;SDS011;43397;51.530;5.974;2022-07-29T09:20:07;12.07;;;9.25;;
57561;SDS011;43397;51.530;5.974;2022-07-29T09:22:35;11.85;;;10.63;;
57561;SDS011;43397;51.530;5.974;2022-07-29T09:25:01;13.02;;;11.15;;
57561;SDS011;43397;51.530;5.974;2022-07-29T09:27:27;15.10;;;12.25;;
57561;SDS011;43397;51.530;5.974;2022-07-29T09:29:56;12.15;;;10.48;;
57561;SDS011;43397;51.530;5.974;2022-07-29T09:32:23;11.65;;;9.63;;
57561;SDS011;43397;51.530;5.974;2022-07-29T09:34:49;12.50;;;9.32;;
57561;SDS011;43397;51.530;5.974;2022-07-29T09:37:25;11.88;;;10.00;;
57561;SDS011;43397;51.530;5.974;2022-07-29T09:39:53;11.60;;;10.05;;
57561;SDS011;43397;51.530;5.974;2022-07-29T09:42:27;15.55;;;10.63;;
57561;SDS011;43397;51.530;5.974;2022-07-29T09:44:54;12.05;;;9.60;;
57561;SDS011;43397;51.530;5.974;2022-07-29T09:47:20;12.68;;;9.80;;
57561;SDS011;43397;51.530;5.974;2022-07-29T09:50:05;12.00;;;9.90;;
57561;SDS011;43397;51.530;5.974;2022-07-29T09:52:32;11.73;;;9.23;;
57561;SDS011;43397;51.530;5.974;2022-07-29T09:55:12;12.38;;;9.05;;
57561;SDS011;43397;51.530;5.974;2022-07-29T09:57:38;9.85;;;8.32;;
57561;SDS011;43397;51.530;5.974;2022-07-29T10:00:05;10.30;;;9.00;;
57561;SDS011;43397;51.530;5.974;2022-07-29T10:02:34;11.20;;;9.52;;
57561;SDS011;43397;51.530;5.974;2022-07-29T10:05:01;10.40;;;9.30;;
57561;SDS011;43397;51.530;5.974;2022-07-29T10:07:42;14.20;;;10.45;;
57561;SDS011;43397;51.530;5.974;2022-07-29T10:10:09;11.55;;;8.98;;
57561;SDS011;43397;51.530;5.974;2022-07-29T10:12:36;10.70;;;9.13;;
57561;SDS011;43397;51.530;5.974;2022-07-29T10:15:14;12.88;;;9.13;;
57561;SDS011;43397;51.530;5.974;2022-07-29T10:17:41;12.10;;;9.02;;
57561;SDS011;43397;51.530;5.974;2022-07-29T10:20:07;14.05;;;8.65;;
57561;SDS011;43397;51.530;5.974;2022-07-29T10:22:34;10.52;;;8.30;;
57561;SDS011;43397;51.530;5.974;2022-07-29T10:24:59;11.40;;;8.20;;
57561;SDS011;43397;51.530;5.974;2022-07-29T10:27:26;10.40;;;7.63;;
57561;SDS011;43397;51.530;5.974;2022-07-29T10:29:54;9.73;;;7.60;;
57561;SDS011;43397;51.530;5.974;2022-07-29T10:32:23;10.82;;;7.28;;
57561;SDS011;43397;51.530;5.974;2022-07-29T10:35:19;11.02;;;7.30;;
57561;SDS011;43397;51.530;5.974;2022-07-29T10:37:56;9.57;;;8.00;;
57561;SDS011;43397;51.530;5.974;2022-07-29T10:40:49;10.00;;;7.95;;
57561;SDS011;43397;51.530;5.974;2022-07-29T10:43:24;10.30;;;8.43;;
57561;SDS011;43397;51.530;5.974;2022-07-29T10:45:57;13.40;;;9.55;;
57561;SDS011;43397;51.530;5.974;2022-07-29T10:50:57;9.00;;;8.07;;
57561;SDS011;43397;51.530;5.974;2022-07-29T10:53:24;13.23;;;8.13;;
57561;SDS011;43397;51.530;5.974;2022-07-29T10:56:22;12.63;;;7.85;;
57561;SDS011;43397;51.530;5.974;2022-07-29T10:58:57;9.82;;;8.02;;
57561;SDS011;43397;51.530;5.974;2022-07-29T11:01:50;10.90;;;8.55;;
57561;SDS011;43397;51.530;5.974;2022-07-29T11:04:22;9.68;;;6.70;;
57561;SDS011;43397;51.530;5.974;2022-07-29T11:07:27;12.23;;;7.57;;
57561;SDS011;43397;51.530;5.974;2022-07-29T11:12:46;12.13;;;7.90;;
57561;SDS011;43397;51.530;5.974;2022-07-29T11:15:13;9.30;;;6.95;;
57561;SDS011;43397;51.530;5.974;2022-07-29T11:20:31;9.32;;;6.20;;
57561;SDS011;43397;51.530;5.974;2022-07-29T11:23:17;9.48;;;6.88;;
57561;SDS011;43397;51.530;5.974;2022-07-29T11:25:44;11.40;;;7.25;;
57561;SDS011;43397;51.530;5.974;2022-07-29T11:28:11;8.15;;;5.80;;
57561;SDS011;43397;51.530;5.974;2022-07-29T11:30:47;7.90;;;6.05;;
57561;SDS011;43397;51.530;5.974;2022-07-29T11:33:27;9.23;;;5.57;;
57561;SDS011;43397;51.530;5.974;2022-07-29T11:36:06;8.27;;;5.68;;
57561;SDS011;43397;51.530;5.974;2022-07-29T11:38:33;9.05;;;4.95;;
57561;SDS011;43397;51.530;5.974;2022-07-29T11:43:47;7.57;;;4.27;;
57561;SDS011;43397;51.530;5.974;2022-07-29T11:46:13;6.85;;;4.07;;
57561;SDS011;43397;51.530;5.974;2022-07-29T11:48:42;7.60;;;4.70;;
57561;SDS011;43397;51.530;5.974;2022-07-29T11:51:09;8.07;;;4.55;;
57561;SDS011;43397;51.530;5.974;2022-07-29T11:53:39;7.68;;;5.20;;
57561;SDS011;43397;51.530;5.974;2022-07-29T11:58:33;9.23;;;5.05;;
57561;SDS011;43397;51.530;5.974;2022-07-29T12:00:59;7.68;;;4.63;;
57561;SDS011;43397;51.530;5.974;2022-07-29T12:03:26;6.53;;;4.03;;
57561;SDS011;43397;51.530;5.974;2022-07-29T12:05:54;8.65;;;4.28;;
57561;SDS011;43397;51.530;5.974;2022-07-29T12:08:21;6.82;;;3.72;;
57561;SDS011;43397;51.530;5.974;2022-07-29T12:10:48;6.47;;;3.58;;
57561;SDS011;43397;51.530;5.974;2022-07-29T12:13:16;6.57;;;3.40;;
57561;SDS011;43397;51.530;5.974;2022-07-29T12:15:42;7.45;;;3.90;;
57561;SDS011;43397;51.530;5.974;2022-07-29T12:18:18;5.95;;;3.40;;
57561;SDS011;43397;51.530;5.974;2022-07-29T12:20:45;5.35;;;3.60;;
57561;SDS011;43397;51.530;5.974;2022-07-29T12:23:14;4.82;;;3.17;;
57561;SDS011;43397;51.530;5.974;2022-07-29T12:25:41;6.20;;;3.20;;
57561;SDS011;43397;51.530;5.974;2022-07-29T12:28:09;5.68;;;2.70;;
57561;SDS011;43397;51.530;5.974;2022-07-29T12:30:37;6.22;;;2.92;;
57561;SDS011;43397;51.530;5.974;2022-07-29T12:33:12;4.75;;;2.65;;
57561;SDS011;43397;51.530;5.974;2022-07-29T12:35:40;4.72;;;2.90;;
57561;SDS011;43397;51.530;5.974;2022-07-29T12:38:09;5.15;;;2.95;;
57561;SDS011;43397;51.530;5.974;2022-07-29T12:40:36;4.57;;;2.63;;
57561;SDS011;43397;51.530;5.974;2022-07-29T12:43:09;6.43;;;2.88;;
57561;SDS011;43397;51.530;5.974;2022-07-29T12:45:37;4.97;;;2.67;;
57561;SDS011;43397;51.530;5.974;2022-07-29T12:48:04;5.57;;;2.92;;
57561;SDS011;43397;51.530;5.974;2022-07-29T12:50:31;4.20;;;2.13;;
57561;SDS011;43397;51.530;5.974;2022-07-29T12:53:07;6.47;;;2.78;;
57561;SDS011;43397;51.530;5.974;2022-07-29T12:55:45;5.65;;;2.33;;
57561;SDS011;43397;51.530;5.974;2022-07-29T12:58:12;4.68;;;2.63;;
57561;SDS011;43397;51.530;5.974;2022-07-29T13:00:38;4.85;;;2.33;;
57561;SDS011;43397;51.530;5.974;2022-07-29T13:03:04;5.30;;;2.70;;
57561;SDS011;43397;51.530;5.974;2022-07-29T13:05:39;4.78;;;2.30;;
57561;SDS011;43397;51.530;5.974;2022-07-29T13:08:10;5.47;;;2.50;;
57561;SDS011;43397;51.530;5.974;2022-07-29T13:10:37;4.07;;;2.20;;
57561;SDS011;43397;51.530;5.974;2022-07-29T13:13:08;6.10;;;2.72;;
57561;SDS011;43397;51.530;5.974;2022-07-29T13:15:36;5.82;;;2.90;;
57561;SDS011;43397;51.530;5.974;2022-07-29T13:18:03;6.60;;;2.80;;
57561;SDS011;43397;51.530;5.974;2022-07-29T13:20:30;7.07;;;3.13;;
57561;SDS011;43397;51.530;5.974;2022-07-29T13:22:56;6.57;;;3.10;;
57561;SDS011;43397;51.530;5.974;2022-07-29T13:25:24;5.70;;;3.20;;
57561;SDS011;43397;51.530;5.974;2022-07-29T13:27:50;5.70;;;2.88;;
57561;SDS011;43397;51.530;5.974;2022-07-29T13:30:17;7.28;;;3.10;;
57561;SDS011;43397;51.530;5.974;2022-07-29T13:32:43;5.35;;;3.00;;
57561;SDS011;43397;51.530;5.974;2022-07-29T13:35:09;5.47;;;3.28;;
57561;SDS011;43397;51.530;5.974;2022-07-29T13:37:35;5.72;;;2.90;;
57561;SDS011;43397;51.530;5.974;2022-07-29T13:40:01;5.68;;;3.03;;
57561;SDS011;43397;51.530;5.974;2022-07-29T13:42:28;4.35;;;2.72;;
57561;SDS011;43397;51.530;5.974;2022-07-29T13:44:54;5.10;;;2.95;;
57561;SDS011;43397;51.530;5.974;2022-07-29T13:47:21;7.95;;;3.03;;
57561;SDS011;43397;51.530;5.974;2022-07-29T13:49:47;5.70;;;2.75;;
57561;SDS011;43397;51.530;5.974;2022-07-29T13:52:13;6.72;;;2.95;;
57561;SDS011;43397;51.530;5.974;2022-07-29T13:54:39;5.47;;;3.10;;
57561;SDS011;43397;51.530;5.974;2022-07-29T13:57:05;4.95;;;2.97;;
57561;SDS011;43397;51.530;5.974;2022-07-29T13:59:31;6.07;;;3.63;;
57561;SDS011;43397;51.530;5.974;2022-07-29T14:01:58;6.10;;;3.00;;
57561;SDS011;43397;51.530;5.974;2022-07-29T14:04:25;5.47;;;3.08;;
57561;SDS011;43397;51.530;5.974;2022-07-29T14:06:51;5.85;;;3.40;;
57561;SDS011;43397;51.530;5.974;2022-07-29T14:09:17;7.25;;;3.47;;
57561;SDS011;43397;51.530;5.974;2022-07-29T14:11:43;5.97;;;2.70;;
57561;SDS011;43397;51.530;5.974;2022-07-29T14:14:09;6.53;;;3.22;;
57561;SDS011;43397;51.530;5.974;2022-07-29T14:16:34;4.50;;;2.40;;
57561;SDS011;43397;51.530;5.974;2022-07-29T14:19:00;6.57;;;2.58;;
57561;SDS011;43397;51.530;5.974;2022-07-29T14:21:28;5.60;;;2.35;;
57561;SDS011;43397;51.530;5.974;2022-07-29T14:23:54;4.68;;;2.08;;
57561;SDS011;43397;51.530;5.974;2022-07-29T14:26:20;4.47;;;2.10;;
57561;SDS011;43397;51.530;5.974;2022-07-29T14:28:46;6.50;;;2.10;;
57561;SDS011;43397;51.530;5.974;2022-07-29T14:31:12;4.53;;;2.00;;
57561;SDS011;43397;51.530;5.974;2022-07-29T14:33:38;6.60;;;2.20;;
57561;SDS011;43397;51.530;5.974;2022-07-29T14:36:04;4.78;;;2.42;;
57561;SDS011;43397;51.530;5.974;2022-07-29T14:38:32;5.35;;;2.53;;
57561;SDS011;43397;51.530;5.974;2022-07-29T14:40:57;4.88;;;2.40;;
57561;SDS011;43397;51.530;5.974;2022-07-29T14:43:23;5.00;;;2.70;;
57561;SDS011;43397;51.530;5.974;2022-07-29T14:45:52;5.35;;;2.22;;
57561;SDS011;43397;51.530;5.974;2022-07-29T14:48:18;5.32;;;2.10;;
57561;SDS011;43397;51.530;5.974;2022-07-29T14:50:44;5.57;;;2.55;;
57561;SDS011;43397;51.530;5.974;2022-07-29T14:53:16;4.22;;;2.50;;
57561;SDS011;43397;51.530;5.974;2022-07-29T14:55:43;5.95;;;2.20;;
57561;SDS011;43397;51.530;5.974;2022-07-29T14:58:09;6.20;;;2.45;;
57561;SDS011;43397;51.530;5.974;2022-07-29T15:00:35;5.60;;;2.47;;
57561;SDS011;43397;51.530;5.974;2022-07-29T15:03:01;6.63;;;3.22;;
57561;SDS011;43397;51.530;5.974;2022-07-29T15:05:28;6.50;;;2.95;;
57561;SDS011;43397;51.530;5.974;2022-07-29T15:07:54;7.13;;;3.20;;
57561;SDS011;43397;51.530;5.974;2022-07-29T15:10:19;7.28;;;3.10;;
57561;SDS011;43397;51.530;5.974;2022-07-29T15:12:47;6.38;;;2.60;;